Wilmington, OH

7:40 PM EST on February 01, 2015 (GMT -0500)
Dayton-Wright Brothers | Change Station
CLOSE
Current Station
Airport
Location: Dayton Wright,
Elevation: 961 ft
Nearby Weather Stations

Elev 961 ft 39.59 °N, 84.22 °W | Updated 47 minutes ago

Rain
Rain
41 °F
Feels Like 37 °F
N
6
Wind Variable Wind from South

Today
High -- | Low -- °F
--% Chance of Precip.
Yesterday
High -- | Low -- °F
Precip. -- in
7:42 AM 5:55 PM
Waxing Gibbous, 97% visible
Pressure 29.58 in
Visibility 4.0 miles
Clouds Overcast 400 ft
Windchill 37 °F
Dew Point 40 °F
Humidity 96%
Rainfall 0.28 in
Snow Depth Not available.
UV 0 out of 12
Pollen .10 out of 12
Air Quality Not available.
Flu Activity Not available.
METAR KMGY 012353Z AUTO 18005KT 4SM -RA BR OVC004 05/04 A2956 RMK AO2 SLP016 P0007 60026 T00500044 10050 20039 56017

More Conditions Fewer Conditions

Pressure 29.58 in
Visibility 4.0 miles
Clouds Overcast 400 ft
Windchill 37 °F
Dew Point 40 °F
Humidity 96%
Rainfall 0.28 in
Snow Depth Not available.
UV 0 out of 12
Pollen .10 out of 12
Air Quality Not available.
Flu Activity Not available.
METAR KMGY 012353Z AUTO 18005KT 4SM -RA BR OVC004 05/04 A2956 RMK AO2 SLP016 P0007 60026 T00500044 10050 20039 56017

More Conditions Fewer Conditions

10-Day Weather Forecast

Almanac

Astronomy

Feb. 01, 2015 Rise Set
Actual Time
Civil Twilight
Nautical Twilight
Astronomical Twilight
Moon
Length of Visible Light
Length of Day
Tomorrow will be .
, % of the Moon is Illuminated

Today's Extremes

State Highs State Lows

Community

WunderPhotos

Upload Photos

1,792,637 photos uploaded!

WunderBlogs® & News

Nearby

Air Quality

  Air Quality AQ Index Pollutant
Not available.

Snow Depth

Station Depth Elevation

Earthquake Activity

City Distance Mag. Time & Date
Minimum magnitude displayed is 2.5.

Coastal Water Temperatures

Place Temperature

Nearby Weather Stations